Terminal Aerodrome Forecast
Issued by NWS North Platte, NE

Home | Current Version | Previous Version | Text Only | Print | Product List | Glossary Off
Versions: 1 2 3 4 5 6 7 8 9 10 11 12 13 14 15 16 17 18

000
FTUS43 KLBF 281700
TAFVTN
TAF
KVTN 281725Z 2818/2918 17009KT P6SM BKN120
     FM290000 18009KT P6SM -SHRA BKN050
      TEMPO 2900/2903 3SM TSRA OVC035CB
     FM290400 27008KT P6SM SCT020 BKN100
     FM291400 32014G22KT P6SM OVC035=

USA.gov is the U.S. government's official web portal to all federal, state and local government web resources and services.